sensor_id;sensor_type;location;lat;lon;timestamp;pressure;altitude;pressure_sealevel;temperature;humidity
46756;BME280;32506;52.826;-1.192;2023-06-14T10:59:36;101242.25;;;27.39;36.22
46756;BME280;32506;52.826;-1.192;2023-06-14T11:04:50;101239.47;;;27.85;34.39
46756;BME280;32506;52.826;-1.192;2023-06-14T11:12:48;101237.78;;;28.29;32.33
46756;BME280;32506;52.826;-1.192;2023-06-14T11:15:19;101240.72;;;28.41;32.67
46756;BME280;32506;52.826;-1.192;2023-06-14T11:17:51;101241.25;;;28.52;32.19
46756;BME280;32506;52.826;-1.192;2023-06-14T11:20:25;101230.28;;;28.61;32.32
46756;BME280;32506;52.826;-1.192;2023-06-14T11:22:54;101233.06;;;28.70;31.01
46756;BME280;32506;52.826;-1.192;2023-06-14T11:25:20;101236.97;;;28.77;31.06
46756;BME280;32506;52.826;-1.192;2023-06-14T11:27:45;101232.63;;;28.85;31.75
46756;BME280;32506;52.826;-1.192;2023-06-14T11:30:12;101232.16;;;28.92;30.60
46756;BME280;32506;52.826;-1.192;2023-06-14T11:32:41;101235.22;;;28.99;30.92
46756;BME280;32506;52.826;-1.192;2023-06-14T11:35:08;101223.72;;;29.06;29.84
46756;BME280;32506;52.826;-1.192;2023-06-14T11:37:36;101233.47;;;29.12;30.33
46756;BME280;32506;52.826;-1.192;2023-06-14T11:40:03;101231.00;;;29.19;30.20
46756;BME280;32506;52.826;-1.192;2023-06-14T11:42:33;101228.94;;;29.25;30.56
46756;BME280;32506;52.826;-1.192;2023-06-14T11:44:59;101229.28;;;29.32;30.78
46756;BME280;32506;52.826;-1.192;2023-06-14T11:47:39;101232.84;;;29.41;29.94
46756;BME280;32506;52.826;-1.192;2023-06-14T11:50:07;101232.16;;;29.44;28.95
46756;BME280;32506;52.826;-1.192;2023-06-14T11:52:33;101237.50;;;29.50;28.78
46756;BME280;32506;52.826;-1.192;2023-06-14T11:54:59;101227.97;;;29.56;29.68
46756;BME280;32506;52.826;-1.192;2023-06-14T11:57:25;101226.97;;;29.60;29.41
46756;BME280;32506;52.826;-1.192;2023-06-14T11:59:51;101225.34;;;29.68;29.59
46756;BME280;32506;52.826;-1.192;2023-06-14T12:02:18;101224.34;;;29.73;29.20
46756;BME280;32506;52.826;-1.192;2023-06-14T12:04:47;101221.91;;;29.80;28.90
46756;BME280;32506;52.826;-1.192;2023-06-14T12:07:16;101223.66;;;29.85;28.23
46756;BME280;32506;52.826;-1.192;2023-06-14T12:12:23;101223.34;;;29.95;28.74
46756;BME280;32506;52.826;-1.192;2023-06-14T12:14:51;101218.47;;;30.01;28.73
46756;BME280;32506;52.826;-1.192;2023-06-14T12:17:18;101218.28;;;30.06;28.50
46756;BME280;32506;52.826;-1.192;2023-06-14T12:19:45;101215.66;;;30.09;27.58
46756;BME280;32506;52.826;-1.192;2023-06-14T12:22:12;101225.38;;;30.16;27.98
46756;BME280;32506;52.826;-1.192;2023-06-14T12:24:38;101213.03;;;30.22;28.27
46756;BME280;32506;52.826;-1.192;2023-06-14T12:27:04;101219.50;;;30.26;27.63
46756;BME280;32506;52.826;-1.192;2023-06-14T12:29:33;101211.84;;;30.32;27.26
46756;BME280;32506;52.826;-1.192;2023-06-14T12:31:59;101219.91;;;30.37;26.29
46756;BME280;32506;52.826;-1.192;2023-06-14T12:34:24;101216.81;;;30.38;26.04
46756;BME280;32506;52.826;-1.192;2023-06-14T12:36:51;101221.31;;;30.43;27.16
46756;BME280;32506;52.826;-1.192;2023-06-14T12:39:18;101214.88;;;30.48;27.99
46756;BME280;32506;52.826;-1.192;2023-06-14T12:41:44;101215.81;;;30.52;27.16
46756;BME280;32506;52.826;-1.192;2023-06-14T12:44:13;101214.50;;;30.58;27.01
46756;BME280;32506;52.826;-1.192;2023-06-14T12:46:44;101212.78;;;30.66;27.12
46756;BME280;32506;52.826;-1.192;2023-06-14T12:49:11;101212.59;;;30.71;26.42
46756;BME280;32506;52.826;-1.192;2023-06-14T12:51:37;101210.00;;;30.74;26.25
46756;BME280;32506;52.826;-1.192;2023-06-14T12:54:03;101214.97;;;30.81;26.21
46756;BME280;32506;52.826;-1.192;2023-06-14T12:56:29;101223.38;;;30.85;25.65
46756;BME280;32506;52.826;-1.192;2023-06-14T12:58:54;101219.13;;;30.87;25.40
46756;BME280;32506;52.826;-1.192;2023-06-14T13:01:20;101212.47;;;30.88;25.20
46756;BME280;32506;52.826;-1.192;2023-06-14T13:03:48;101214.25;;;30.93;26.10
46756;BME280;32506;52.826;-1.192;2023-06-14T13:06:16;101226.56;;;30.95;25.93
46756;BME280;32506;52.826;-1.192;2023-06-14T13:08:41;101221.63;;;31.01;26.07
46756;BME280;32506;52.826;-1.192;2023-06-14T13:11:09;101215.13;;;31.06;25.22
46756;BME280;32506;52.826;-1.192;2023-06-14T13:13:34;101216.53;;;31.12;25.27
46756;BME280;32506;52.826;-1.192;2023-06-14T13:16:00;101223.34;;;31.15;25.49
46756;BME280;32506;52.826;-1.192;2023-06-14T13:18:26;101216.34;;;31.17;24.59
46756;BME280;32506;52.826;-1.192;2023-06-14T13:20:51;101221.97;;;31.21;25.41
46756;BME280;32506;52.826;-1.192;2023-06-14T13:23:17;101224.06;;;31.24;24.50
46756;BME280;32506;52.826;-1.192;2023-06-14T13:25:43;101217.06;;;31.26;24.25
46756;BME280;32506;52.826;-1.192;2023-06-14T13:28:08;101206.81;;;31.27;24.61
46756;BME280;32506;52.826;-1.192;2023-06-14T13:30:34;101204.50;;;31.29;25.12
46756;BME280;32506;52.826;-1.192;2023-06-14T13:33:00;101215.69;;;31.33;24.78
46756;BME280;32506;52.826;-1.192;2023-06-14T13:35:26;101216.28;;;31.38;24.81
46756;BME280;32506;52.826;-1.192;2023-06-14T13:37:52;101217.56;;;31.41;24.43
46756;BME280;32506;52.826;-1.192;2023-06-14T13:40:17;101209.75;;;31.43;24.14
46756;BME280;32506;52.826;-1.192;2023-06-14T13:42:43;101209.91;;;31.46;24.25
46756;BME280;32506;52.826;-1.192;2023-06-14T13:45:11;101211.97;;;31.50;24.11
46756;BME280;32506;52.826;-1.192;2023-06-14T13:47:37;101215.66;;;31.54;24.12
46756;BME280;32506;52.826;-1.192;2023-06-14T13:50:03;101210.28;;;31.57;24.23
46756;BME280;32506;52.826;-1.192;2023-06-14T13:52:29;101220.66;;;31.60;23.62
46756;BME280;32506;52.826;-1.192;2023-06-14T13:54:54;101221.94;;;31.63;24.80
46756;BME280;32506;52.826;-1.192;2023-06-14T13:57:23;101222.72;;;31.63;23.58
46756;BME280;32506;52.826;-1.192;2023-06-14T13:59:48;101218.81;;;31.65;23.83
46756;BME280;32506;52.826;-1.192;2023-06-14T14:02:15;101211.34;;;31.65;24.19
46756;BME280;32506;52.826;-1.192;2023-06-14T14:04:41;101214.91;;;31.66;24.29
46756;BME280;32506;52.826;-1.192;2023-06-14T14:07:09;101218.59;;;31.70;24.05
46756;BME280;32506;52.826;-1.192;2023-06-14T14:09:35;101213.53;;;31.72;24.68
46756;BME280;32506;52.826;-1.192;2023-06-14T14:12:01;101222.66;;;31.72;23.44
46756;BME280;32506;52.826;-1.192;2023-06-14T14:14:28;101209.75;;;31.76;24.25
46756;BME280;32506;52.826;-1.192;2023-06-14T14:16:53;101208.63;;;31.77;23.68
46756;BME280;32506;52.826;-1.192;2023-06-14T14:19:20;101211.84;;;31.79;23.26
46756;BME280;32506;52.826;-1.192;2023-06-14T14:21:49;101205.59;;;31.83;24.16
46756;BME280;32506;52.826;-1.192;2023-06-14T14:24:15;101205.16;;;31.81;23.85
46756;BME280;32506;52.826;-1.192;2023-06-14T14:26:41;101204.81;;;31.82;23.24
46756;BME280;32506;52.826;-1.192;2023-06-14T14:29:06;101208.38;;;31.83;23.57
46756;BME280;32506;52.826;-1.192;2023-06-14T14:31:32;101205.97;;;31.81;23.36
46756;BME280;32506;52.826;-1.192;2023-06-14T14:33:58;101202.84;;;31.83;22.75
46756;BME280;32506;52.826;-1.192;2023-06-14T14:36:23;101205.28;;;31.84;24.62
46756;BME280;32506;52.826;-1.192;2023-06-14T14:38:51;101205.59;;;31.83;23.99
46756;BME280;32506;52.826;-1.192;2023-06-14T14:41:17;101200.91;;;31.83;23.96
46756;BME280;32506;52.826;-1.192;2023-06-14T14:43:43;101202.84;;;31.83;23.95
46756;BME280;32506;52.826;-1.192;2023-06-14T14:46:08;101205.28;;;31.84;23.92
46756;BME280;32506;52.826;-1.192;2023-06-14T14:48:34;101207.56;;;31.82;23.99
46756;BME280;32506;52.826;-1.192;2023-06-14T14:51:00;101207.56;;;31.82;24.11
46756;BME280;32506;52.826;-1.192;2023-06-14T14:53:25;101205.97;;;31.81;24.15
46756;BME280;32506;52.826;-1.192;2023-06-14T14:55:51;101211.03;;;31.79;24.53
46756;BME280;32506;52.826;-1.192;2023-06-14T14:58:16;101214.16;;;31.77;24.28
46756;BME280;32506;52.826;-1.192;2023-06-14T15:00:48;101214.94;;;31.78;24.83
46756;BME280;32506;52.826;-1.192;2023-06-14T15:03:14;101202.97;;;31.74;24.56
46756;BME280;32506;52.826;-1.192;2023-06-14T15:05:40;101205.25;;;31.72;25.08
46756;BME280;32506;52.826;-1.192;2023-06-14T15:08:06;101208.00;;;31.72;25.20
46756;BME280;32506;52.826;-1.192;2023-06-14T15:10:38;101220.69;;;31.73;25.99
46756;BME280;32506;52.826;-1.192;2023-06-14T15:13:09;101208.00;;;31.72;25.13
46756;BME280;32506;52.826;-1.192;2023-06-14T15:15:35;101209.50;;;31.69;24.66
46756;BME280;32506;52.826;-1.192;2023-06-14T15:18:01;101212.94;;;31.66;24.18
46756;BME280;32506;52.826;-1.192;2023-06-14T15:20:26;101212.50;;;31.64;24.87
46756;BME280;32506;52.826;-1.192;2023-06-14T15:22:53;101218.22;;;31.59;24.98
46756;BME280;32506;52.826;-1.192;2023-06-14T15:25:20;101216.59;;;31.58;25.49
46756;BME280;32506;52.826;-1.192;2023-06-14T15:27:46;101220.84;;;31.55;25.84
46756;BME280;32506;52.826;-1.192;2023-06-14T15:30:12;101217.63;;;31.53;25.36
46756;BME280;32506;52.826;-1.192;2023-06-14T15:32:38;101211.63;;;31.51;25.38
46756;BME280;32506;52.826;-1.192;2023-06-14T15:35:04;101216.22;;;31.47;24.87
46756;BME280;32506;52.826;-1.192;2023-06-14T15:37:29;101218.84;;;31.43;25.51
46756;BME280;32506;52.826;-1.192;2023-06-14T15:39:55;101217.13;;;31.39;25.36
46756;BME280;32506;52.826;-1.192;2023-06-14T15:42:20;101216.19;;;31.35;25.48
46756;BME280;32506;52.826;-1.192;2023-06-14T15:44:46;101217.53;;;31.28;24.59
46756;BME280;32506;52.826;-1.192;2023-06-14T15:47:12;101210.28;;;31.24;25.00
46756;BME280;32506;52.826;-1.192;2023-06-14T15:49:38;101217.63;;;31.20;24.96
46756;BME280;32506;52.826;-1.192;2023-06-14T15:52:04;101213.09;;;31.15;25.66
46756;BME280;32506;52.826;-1.192;2023-06-14T15:54:29;101215.41;;;31.13;25.09
46756;BME280;32506;52.826;-1.192;2023-06-14T15:56:55;101212.94;;;31.11;24.96
46756;BME280;32506;52.826;-1.192;2023-06-14T15:59:20;101208.47;;;31.07;25.20
46756;BME280;32506;52.826;-1.192;2023-06-14T16:01:46;101214.97;;;31.02;25.12
46756;BME280;32506;52.826;-1.192;2023-06-14T16:04:11;101209.78;;;31.01;25.54
46756;BME280;32506;52.826;-1.192;2023-06-14T16:06:37;101210.78;;;30.96;25.48
46756;BME280;32506;52.826;-1.192;2023-06-14T16:09:05;101210.31;;;30.94;25.21
46756;BME280;32506;52.826;-1.192;2023-06-14T16:11:31;101218.13;;;30.92;25.18
46756;BME280;32506;52.826;-1.192;2023-06-14T16:13:56;101208.09;;;30.87;24.80
46756;BME280;32506;52.826;-1.192;2023-06-14T16:16:22;101213.16;;;30.85;25.10
46756;BME280;32506;52.826;-1.192;2023-06-14T16:18:48;101207.34;;;30.78;25.27
46756;BME280;32506;52.826;-1.192;2023-06-14T16:21:14;101209.16;;;30.74;24.83
46756;BME280;32506;52.826;-1.192;2023-06-14T16:23:39;101213.28;;;30.68;24.76
46756;BME280;32506;52.826;-1.192;2023-06-14T16:26:05;101211.06;;;30.61;25.04
46756;BME280;32506;52.826;-1.192;2023-06-14T16:28:31;101217.88;;;30.55;25.53
46756;BME280;32506;52.826;-1.192;2023-06-14T16:30:57;101212.25;;;30.51;24.87
46756;BME280;32506;52.826;-1.192;2023-06-14T16:33:22;101206.94;;;30.46;24.89
46756;BME280;32506;52.826;-1.192;2023-06-14T16:35:48;101207.53;;;30.43;24.64
46756;BME280;32506;52.826;-1.192;2023-06-14T16:38:13;101206.13;;;30.37;24.83
46756;BME280;32506;52.826;-1.192;2023-06-14T16:40:39;101204.34;;;30.32;24.82
46756;BME280;32506;52.826;-1.192;2023-06-14T16:43:04;101206.50;;;30.26;24.56
46756;BME280;32506;52.826;-1.192;2023-06-14T16:45:30;101212.19;;;30.21;24.73
46756;BME280;32506;52.826;-1.192;2023-06-14T16:47:55;101198.13;;;30.14;24.54
46756;BME280;32506;52.826;-1.192;2023-06-14T16:50:20;101204.16;;;30.07;25.02
46756;BME280;32506;52.826;-1.192;2023-06-14T16:52:46;101199.97;;;30.01;25.25
46756;BME280;32506;52.826;-1.192;2023-06-14T16:55:12;101205.34;;;29.98;25.47
46756;BME280;32506;52.826;-1.192;2023-06-14T16:57:38;101211.84;;;29.93;25.37
46756;BME280;32506;52.826;-1.192;2023-06-14T17:00:05;101213.97;;;29.87;25.39
46756;BME280;32506;52.826;-1.192;2023-06-14T17:02:31;101211.84;;;29.84;25.62
46756;BME280;32506;52.826;-1.192;2023-06-14T17:04:56;101213.94;;;29.78;25.33
46756;BME280;32506;52.826;-1.192;2023-06-14T17:07:21;101219.97;;;29.72;24.74
46756;BME280;32506;52.826;-1.192;2023-06-14T17:09:47;101214.66;;;29.67;25.56
46756;BME280;32506;52.826;-1.192;2023-06-14T17:12:12;101219.03;;;29.59;25.77
46756;BME280;32506;52.826;-1.192;2023-06-14T17:14:38;101221.16;;;29.53;25.40
46756;BME280;32506;52.826;-1.192;2023-06-14T17:17:04;101221.66;;;29.46;25.68
46756;BME280;32506;52.826;-1.192;2023-06-14T17:19:29;101219.41;;;29.40;26.08
46756;BME280;32506;52.826;-1.192;2023-06-14T17:21:55;101222.31;;;29.35;25.66
46756;BME280;32506;52.826;-1.192;2023-06-14T17:24:20;101221.19;;;29.27;25.92
46756;BME280;32506;52.826;-1.192;2023-06-14T17:26:46;101227.78;;;29.17;26.29
46756;BME280;32506;52.826;-1.192;2023-06-14T17:29:11;101226.00;;;29.12;26.68
46756;BME280;32506;52.826;-1.192;2023-06-14T17:31:37;101224.38;;;29.03;25.97
46756;BME280;32506;52.826;-1.192;2023-06-14T17:34:02;101234.41;;;28.99;27.17
46756;BME280;32506;52.826;-1.192;2023-06-14T17:36:28;101225.19;;;28.94;27.30
46756;BME280;32506;52.826;-1.192;2023-06-14T17:38:54;101227.59;;;28.87;26.68
46756;BME280;32506;52.826;-1.192;2023-06-14T17:41:19;101236.31;;;28.80;27.23
46756;BME280;32506;52.826;-1.192;2023-06-14T17:43:47;101229.69;;;28.73;27.91
46756;BME280;32506;52.826;-1.192;2023-06-14T17:46:12;101230.75;;;28.63;27.27
46756;BME280;32506;52.826;-1.192;2023-06-14T17:48:38;101226.88;;;28.55;27.31
46756;BME280;32506;52.826;-1.192;2023-06-14T17:51:05;101227.97;;;28.45;27.61
46756;BME280;32506;52.826;-1.192;2023-06-14T17:53:31;101241.69;;;28.37;28.33
46756;BME280;32506;52.826;-1.192;2023-06-14T17:55:57;101236.78;;;28.25;29.24
46756;BME280;32506;52.826;-1.192;2023-06-14T17:58:22;101236.78;;;28.16;29.01
46756;BME280;32506;52.826;-1.192;2023-06-14T18:00:50;101236.41;;;28.09;29.29
46756;BME280;32506;52.826;-1.192;2023-06-14T18:03:16;101240.72;;;28.01;29.34
46756;BME280;32506;52.826;-1.192;2023-06-14T18:05:42;101246.94;;;27.93;29.49
46756;BME280;32506;52.826;-1.192;2023-06-14T18:08:08;101249.66;;;27.84;29.67
46756;BME280;32506;52.826;-1.192;2023-06-14T18:10:34;101250.44;;;27.76;30.00
46756;BME280;32506;52.826;-1.192;2023-06-14T18:13:00;101253.91;;;27.68;29.57
46756;BME280;32506;52.826;-1.192;2023-06-14T18:15:26;101250.00;;;27.60;29.81
46756;BME280;32506;52.826;-1.192;2023-06-14T18:17:52;101255.41;;;27.51;30.21
46756;BME280;32506;52.826;-1.192;2023-06-14T18:20:20;101254.53;;;27.42;30.18
46756;BME280;32506;52.826;-1.192;2023-06-14T18:22:47;101250.38;;;27.30;30.41
46756;BME280;32506;52.826;-1.192;2023-06-14T18:25:13;101255.47;;;27.23;30.58
46756;BME280;32506;52.826;-1.192;2023-06-14T18:27:39;101252.47;;;27.11;31.02
46756;BME280;32506;52.826;-1.192;2023-06-14T18:30:06;101252.72;;;27.01;31.14
46756;BME280;32506;52.826;-1.192;2023-06-14T18:32:31;101263.06;;;26.90;31.31
46756;BME280;32506;52.826;-1.192;2023-06-14T18:34:58;101260.25;;;26.81;31.35
46756;BME280;32506;52.826;-1.192;2023-06-14T18:37:24;101262.38;;;26.70;32.04
46756;BME280;32506;52.826;-1.192;2023-06-14T18:39:50;101257.91;;;26.60;32.02
46756;BME280;32506;52.826;-1.192;2023-06-14T18:42:16;101264.09;;;26.52;32.21
46756;BME280;32506;52.826;-1.192;2023-06-14T18:44:41;101267.53;;;26.44;32.55
46756;BME280;32506;52.826;-1.192;2023-06-14T18:47:07;101261.13;;;26.35;32.90
46756;BME280;32506;52.826;-1.192;2023-06-14T18:49:32;101262.16;;;26.25;32.71
46756;BME280;32506;52.826;-1.192;2023-06-14T18:51:58;101265.91;;;26.15;33.25
46756;BME280;32506;52.826;-1.192;2023-06-14T18:54:23;101271.84;;;26.03;33.28
46756;BME280;32506;52.826;-1.192;2023-06-14T18:56:49;101272.81;;;25.93;33.38
46756;BME280;32506;52.826;-1.192;2023-06-14T18:59:15;101271.56;;;25.86;33.79
46756;BME280;32506;52.826;-1.192;2023-06-14T19:01:40;101280.25;;;25.74;34.02
46756;BME280;32506;52.826;-1.192;2023-06-14T19:04:06;101279.91;;;25.61;34.10
46756;BME280;32506;52.826;-1.192;2023-06-14T19:06:31;101287.16;;;25.52;34.29
46756;BME280;32506;52.826;-1.192;2023-06-14T19:08:57;101289.75;;;25.43;34.62
46756;BME280;32506;52.826;-1.192;2023-06-14T19:11:22;101290.97;;;25.32;35.06
46756;BME280;32506;52.826;-1.192;2023-06-14T19:13:47;101290.00;;;25.23;35.25
46756;BME280;32506;52.826;-1.192;2023-06-14T19:16:13;101285.22;;;25.15;34.93
46756;BME280;32506;52.826;-1.192;2023-06-14T19:18:38;101290.00;;;25.04;35.52
46756;BME280;32506;52.826;-1.192;2023-06-14T19:21:04;101294.50;;;24.94;35.82
46756;BME280;32506;52.826;-1.192;2023-06-14T19:23:30;101291.88;;;24.84;36.52
46756;BME280;32506;52.826;-1.192;2023-06-14T19:25:55;101304.28;;;24.76;36.87
46756;BME280;32506;52.826;-1.192;2023-06-14T19:28:21;101301.66;;;24.66;36.63
46756;BME280;32506;52.826;-1.192;2023-06-14T19:30:47;101301.44;;;24.57;37.00
46756;BME280;32506;52.826;-1.192;2023-06-14T19:33:13;101306.75;;;24.49;36.93
46756;BME280;32506;52.826;-1.192;2023-06-14T19:35:38;101300.28;;;24.39;37.06
46756;BME280;32506;52.826;-1.192;2023-06-14T19:38:04;101303.94;;;24.29;37.15
46756;BME280;32506;52.826;-1.192;2023-06-14T19:40:29;101300.19;;;24.20;37.53
46756;BME280;32506;52.826;-1.192;2023-06-14T19:42:55;101295.63;;;24.10;37.86
46756;BME280;32506;52.826;-1.192;2023-06-14T19:45:20;101312.13;;;24.00;38.31
46756;BME280;32506;52.826;-1.192;2023-06-14T19:47:46;101305.63;;;23.91;38.35
46756;BME280;32506;52.826;-1.192;2023-06-14T19:50:11;101313.88;;;23.80;38.54
46756;BME280;32506;52.826;-1.192;2023-06-14T19:52:37;101313.41;;;23.68;38.96
46756;BME280;32506;52.826;-1.192;2023-06-14T19:55:03;101318.63;;;23.59;39.23
46756;BME280;32506;52.826;-1.192;2023-06-14T19:57:28;101321.16;;;23.51;39.11
46756;BME280;32506;52.826;-1.192;2023-06-14T19:59:54;101311.13;;;23.46;39.02
46756;BME280;32506;52.826;-1.192;2023-06-14T20:02:19;101322.56;;;23.43;38.75
46756;BME280;32506;52.826;-1.192;2023-06-14T20:04:46;101335.69;;;23.41;38.23
46756;BME280;32506;52.826;-1.192;2023-06-14T20:07:11;101329.69;;;23.39;37.80
46756;BME280;32506;52.826;-1.192;2023-06-14T20:09:37;101332.16;;;23.35;37.71
46756;BME280;32506;52.826;-1.192;2023-06-14T20:12:04;101345.56;;;23.32;37.40
46756;BME280;32506;52.826;-1.192;2023-06-14T20:14:30;101340.63;;;23.28;37.03
46756;BME280;32506;52.826;-1.192;2023-06-14T20:16:56;101350.47;;;23.24;36.88
46756;BME280;32506;52.826;-1.192;2023-06-14T20:19:21;101343.16;;;23.20;36.87
46756;BME280;32506;52.826;-1.192;2023-06-14T20:21:47;101348.34;;;23.16;36.57
46756;BME280;32506;52.826;-1.192;2023-06-14T20:24:13;101347.50;;;23.10;36.63
46756;BME280;32506;52.826;-1.192;2023-06-14T20:26:38;101352.19;;;23.05;36.69
46756;BME280;32506;52.826;-1.192;2023-06-14T20:29:03;101356.00;;;22.99;36.60
46756;BME280;32506;52.826;-1.192;2023-06-14T20:31:29;101365.31;;;22.92;36.46
46756;BME280;32506;52.826;-1.192;2023-06-14T20:33:55;101366.13;;;22.88;36.42
46756;BME280;32506;52.826;-1.192;2023-06-14T20:36:20;101369.13;;;22.81;36.34
46756;BME280;32506;52.826;-1.192;2023-06-14T20:38:46;101373.22;;;22.73;36.24
46756;BME280;32506;52.826;-1.192;2023-06-14T20:41:12;101373.28;;;22.68;36.48
46756;BME280;32506;52.826;-1.192;2023-06-14T20:43:37;101378.16;;;22.61;36.30
46756;BME280;32506;52.826;-1.192;2023-06-14T20:46:03;101374.91;;;22.54;36.46
46756;BME280;32506;52.826;-1.192;2023-06-14T20:48:32;101382.28;;;22.48;36.43
46756;BME280;32506;52.826;-1.192;2023-06-14T20:50:57;101384.44;;;22.41;36.57
46756;BME280;32506;52.826;-1.192;2023-06-14T20:53:23;101382.25;;;22.33;36.23
46756;BME280;32506;52.826;-1.192;2023-06-14T20:55:48;101387.69;;;22.27;36.86
46756;BME280;32506;52.826;-1.192;2023-06-14T20:58:14;101393.69;;;22.19;36.32
46756;BME280;32506;52.826;-1.192;2023-06-14T21:00:42;101396.94;;;22.11;36.51
46756;BME280;32506;52.826;-1.192;2023-06-14T21:03:10;101399.13;;;22.04;36.79
46756;BME280;32506;52.826;-1.192;2023-06-14T21:05:35;101410.28;;;21.97;36.47
46756;BME280;32506;52.826;-1.192;2023-06-14T21:08:01;101405.31;;;21.89;36.85
46756;BME280;32506;52.826;-1.192;2023-06-14T21:10:26;101411.88;;;21.83;36.79
46756;BME280;32506;52.826;-1.192;2023-06-14T21:12:56;101406.94;;;21.74;36.56
46756;BME280;32506;52.826;-1.192;2023-06-14T21:15:22;101406.63;;;21.66;36.80
46756;BME280;32506;52.826;-1.192;2023-06-14T21:17:53;101415.06;;;21.59;36.94
46756;BME280;32506;52.826;-1.192;2023-06-14T21:20:19;101413.63;;;21.51;37.18
46756;BME280;32506;52.826;-1.192;2023-06-14T21:22:44;101412.25;;;21.43;37.03
46756;BME280;32506;52.826;-1.192;2023-06-14T21:25:11;101419.00;;;21.36;37.24
46756;BME280;32506;52.826;-1.192;2023-06-14T21:27:37;101411.09;;;21.29;37.13
46756;BME280;32506;52.826;-1.192;2023-06-14T21:30:03;101419.22;;;21.24;37.52
46756;BME280;32506;52.826;-1.192;2023-06-14T21:32:29;101424.34;;;21.15;37.72
46756;BME280;32506;52.826;-1.192;2023-06-14T21:34:55;101416.44;;;21.08;37.82
46756;BME280;32506;52.826;-1.192;2023-06-14T21:37:20;101425.91;;;21.01;38.13
46756;BME280;32506;52.826;-1.192;2023-06-14T21:39:46;101416.06;;;20.94;38.22
46756;BME280;32506;52.826;-1.192;2023-06-14T21:42:12;101420.09;;;20.87;38.32
46756;BME280;32506;52.826;-1.192;2023-06-14T21:44:43;101419.25;;;20.81;38.59
46756;BME280;32506;52.826;-1.192;2023-06-14T21:47:10;101418.94;;;20.72;38.64
46756;BME280;32506;52.826;-1.192;2023-06-14T21:49:37;101422.63;;;20.66;38.56
46756;BME280;32506;52.826;-1.192;2023-06-14T21:52:03;101427.50;;;20.59;38.78
46756;BME280;32506;52.826;-1.192;2023-06-14T21:54:29;101425.00;;;20.52;38.75
46756;BME280;32506;52.826;-1.192;2023-06-14T21:56:54;101421.66;;;20.45;38.97
46756;BME280;32506;52.826;-1.192;2023-06-14T21:59:20;101428.13;;;20.39;39.01
46756;BME280;32506;52.826;-1.192;2023-06-14T22:01:45;101422.09;;;20.32;39.33
46756;BME280;32506;52.826;-1.192;2023-06-14T22:04:11;101425.84;;;20.25;39.74
46756;BME280;32506;52.826;-1.192;2023-06-14T22:06:36;101428.50;;;20.20;39.63
46756;BME280;32506;52.826;-1.192;2023-06-14T22:09:02;101431.69;;;20.12;39.64
46756;BME280;32506;52.826;-1.192;2023-06-14T22:11:28;101429.19;;;20.05;39.96
46756;BME280;32506;52.826;-1.192;2023-06-14T22:14:00;101431.84;;;20.00;40.14
46756;BME280;32506;52.826;-1.192;2023-06-14T22:16:25;101433.94;;;19.93;40.18
46756;BME280;32506;52.826;-1.192;2023-06-14T22:18:51;101442.00;;;19.88;40.16
46756;BME280;32506;52.826;-1.192;2023-06-14T22:21:17;101427.81;;;19.81;40.08
46756;BME280;32506;52.826;-1.192;2023-06-14T22:23:45;101439.41;;;19.76;40.22
46756;BME280;32506;52.826;-1.192;2023-06-14T22:26:11;101438.78;;;19.69;40.19
46756;BME280;32506;52.826;-1.192;2023-06-14T22:28:38;101434.38;;;19.62;40.15
46756;BME280;32506;52.826;-1.192;2023-06-14T22:31:06;101443.28;;;19.58;40.01
46756;BME280;32506;52.826;-1.192;2023-06-14T22:33:34;101448.88;;;19.51;40.07
46756;BME280;32506;52.826;-1.192;2023-06-14T22:36:05;101445.53;;;19.44;40.10
46756;BME280;32506;52.826;-1.192;2023-06-14T22:38:31;101448.41;;;19.37;40.12
46756;BME280;32506;52.826;-1.192;2023-06-14T22:40:57;101450.25;;;19.32;40.15
46756;BME280;32506;52.826;-1.192;2023-06-14T22:43:23;101450.97;;;19.27;40.20
46756;BME280;32506;52.826;-1.192;2023-06-14T22:45:49;101453.88;;;19.20;40.04
46756;BME280;32506;52.826;-1.192;2023-06-14T22:48:16;101460.31;;;19.14;40.27
46756;BME280;32506;52.826;-1.192;2023-06-14T22:50:42;101461.03;;;19.09;40.45
46756;BME280;32506;52.826;-1.192;2023-06-14T22:53:07;101451.47;;;19.02;40.48
46756;BME280;32506;52.826;-1.192;2023-06-14T22:55:33;101450.31;;;18.98;40.88
46756;BME280;32506;52.826;-1.192;2023-06-14T22:57:58;101454.81;;;18.92;40.96
46756;BME280;32506;52.826;-1.192;2023-06-14T23:00:25;101455.78;;;18.86;41.33
46756;BME280;32506;52.826;-1.192;2023-06-14T23:02:51;101449.47;;;18.80;41.17
46756;BME280;32506;52.826;-1.192;2023-06-14T23:05:17;101461.03;;;18.75;41.16
46756;BME280;32506;52.826;-1.192;2023-06-14T23:07:44;101456.38;;;18.71;41.25
46756;BME280;32506;52.826;-1.192;2023-06-14T23:10:10;101457.34;;;18.65;41.35
46756;BME280;32506;52.826;-1.192;2023-06-14T23:12:36;101456.19;;;18.60;41.03
46756;BME280;32506;52.826;-1.192;2023-06-14T23:15:02;101459.06;;;18.54;41.14
46756;BME280;32506;52.826;-1.192;2023-06-14T23:17:29;101457.09;;;18.49;41.22
46756;BME280;32506;52.826;-1.192;2023-06-14T23:19:59;101459.72;;;18.44;41.09
46756;BME280;32506;52.826;-1.192;2023-06-14T23:22:36;101462.56;;;18.37;40.91
46756;BME280;32506;52.826;-1.192;2023-06-14T23:25:03;101462.47;;;18.32;40.98
46756;BME280;32506;52.826;-1.192;2023-06-14T23:27:35;101467.78;;;18.27;40.85
46756;BME280;32506;52.826;-1.192;2023-06-14T23:30:03;101467.69;;;18.22;40.78
46756;BME280;32506;52.826;-1.192;2023-06-14T23:32:30;101471.38;;;18.16;40.60
46756;BME280;32506;52.826;-1.192;2023-06-14T23:35:00;101468.34;;;18.12;40.94
46756;BME280;32506;52.826;-1.192;2023-06-14T23:37:25;101463.06;;;18.05;40.76
46756;BME280;32506;52.826;-1.192;2023-06-14T23:39:51;101467.56;;;18.00;40.78
46756;BME280;32506;52.826;-1.192;2023-06-14T23:42:19;101468.28;;;17.95;40.97
46756;BME280;32506;52.826;-1.192;2023-06-14T23:44:45;101468.13;;;17.90;40.78